Time;durP1;ratioP1;P1;durP2;ratioP2;P2;SDS_P1;SDS_P2;PMS_P1;PMS_P2;Temp;Humidity;BMP_temperature;BMP_pressure;BME280_temperature;BME280_humidity;BME280_pressure;Samples;Min_cycle;Max_cycle;Signal;HPM_P1;HPM_P2
2023/05/15 00:00:15;;;;;;;6.17;4.80;;;9.20;99.90;;;;;;5010136;28;20184;-71
2023/05/15 00:02:41;;;;;;;5.73;5.13;;;9.20;99.90;;;;;;4994361;28;20695;-72
2023/05/15 00:05:07;;;;;;;5.60;5.10;;;9.20;99.90;;;;;;4986500;28;20407;-69
2023/05/15 00:07:34;;;;;;;11.63;6.87;;;9.20;99.90;;;;;;4993484;28;20485;-71
2023/05/15 00:09:59;;;;;;;5.63;5.17;;;9.20;99.90;;;;;;4996796;28;20700;-72
2023/05/15 00:12:25;;;;;;;5.67;5.17;;;9.20;99.90;;;;;;4999830;28;20452;-71
2023/05/15 00:14:51;;;;;;;6.80;6.17;;;9.20;99.90;;;;;;4976728;28;20191;-71
2023/05/15 00:17:16;;;;;;;6.07;5.27;;;9.30;99.90;;;;;;5001773;28;20483;-69
2023/05/15 00:19:42;;;;;;;6.73;6.03;;;9.30;99.90;;;;;;4986055;28;20316;-70
2023/05/15 00:22:07;;;;;;;6.07;5.30;;;9.30;99.90;;;;;;5005435;28;20784;-71
2023/05/15 00:24:33;;;;;;;6.53;5.87;;;9.30;99.90;;;;;;5006761;28;20187;-72
2023/05/15 00:27:00;;;;;;;6.10;5.53;;;9.20;99.90;;;;;;4993592;28;20180;-71
2023/05/15 00:29:25;;;;;;;6.00;4.83;;;9.20;99.90;;;;;;5002022;28;20444;-71
2023/05/15 00:31:51;;;;;;;5.43;5.03;;;9.20;99.90;;;;;;4995199;28;20425;-71
2023/05/15 00:34:16;;;;;;;7.20;5.40;;;9.30;99.90;;;;;;5008665;28;20223;-73
2023/05/15 00:36:43;;;;;;;7.33;5.73;;;9.30;99.90;;;;;;5001953;28;20242;-71
2023/05/15 00:39:08;;;;;;;9.93;5.77;;;9.30;99.90;;;;;;5002079;28;20205;-72
2023/05/15 00:41:35;;;;;;;6.17;5.37;;;9.30;99.90;;;;;;4994291;28;20457;-70
2023/05/15 00:44:01;;;;;;;5.20;4.70;;;9.30;99.90;;;;;;4993632;28;20265;-71
2023/05/15 00:46:31;;;;;;;5.60;5.10;;;9.30;99.90;;;;;;4976405;28;20429;-71
2023/05/15 00:48:57;;;;;;;5.80;5.30;;;9.40;99.90;;;;;;5001219;28;20993;-71
2023/05/15 00:51:25;;;;;;;6.47;5.97;;;9.40;99.90;;;;;;4994337;28;20513;-72
2023/05/15 00:53:51;;;;;;;4.53;4.13;;;9.40;99.90;;;;;;5001802;28;20824;-72
2023/05/15 00:56:17;;;;;;;5.20;4.70;;;9.40;99.90;;;;;;4993403;28;20410;-71
2023/05/15 00:58:45;;;;;;;6.13;4.73;;;9.40;99.90;;;;;;4993050;28;20504;-71
2023/05/15 02:32:18;;;;;;;5.83;5.30;;;9.30;99.90;;;;;;5465489;23;20536;-71
2023/05/15 02:35:11;;;;;;;6.30;5.70;;;9.30;99.90;;;;;;5002052;28;20886;-72
2023/05/15 02:37:38;;;;;;;5.53;5.13;;;9.30;99.90;;;;;;5003483;28;20423;-72
2023/05/15 02:40:10;;;;;;;6.33;5.70;;;9.30;99.90;;;;;;4995337;28;20460;-72
2023/05/15 02:42:36;;;;;;;6.90;6.00;;;9.30;99.90;;;;;;4995217;28;21033;-72
2023/05/15 02:45:04;;;;;;;6.70;6.00;;;9.30;99.90;;;;;;4997996;28;20440;-72
2023/05/15 02:47:32;;;;;;;11.97;5.63;;;9.40;99.90;;;;;;5014511;28;20457;-72
2023/05/15 02:49:58;;;;;;;7.53;6.23;;;9.40;99.90;;;;;;4996429;28;21014;-71
2023/05/15 02:52:24;;;;;;;6.67;6.07;;;9.40;99.90;;;;;;4995118;28;20981;-71
2023/05/15 02:54:49;;;;;;;6.57;5.83;;;9.40;99.90;;;;;;4994649;28;20437;-73
2023/05/15 02:57:15;;;;;;;6.60;5.90;;;9.50;99.90;;;;;;4994988;28;20746;-72
2023/05/15 02:59:40;;;;;;;8.77;5.67;;;9.50;99.90;;;;;;4995275;28;20307;-72
2023/05/15 03:02:06;;;;;;;7.93;5.70;;;9.60;99.90;;;;;;4994909;28;20611;-72
2023/05/15 03:04:31;;;;;;;6.57;5.57;;;9.60;99.90;;;;;;4994635;28;20195;-72
2023/05/15 03:06:57;;;;;;;5.70;5.23;;;9.60;99.90;;;;;;4994708;28;20273;-73
2023/05/15 03:09:25;;;;;;;10.20;5.90;;;9.60;99.90;;;;;;5002810;28;20607;-73
2023/05/15 03:11:51;;;;;;;7.17;6.27;;;9.70;99.90;;;;;;5002735;28;20571;-72
2023/05/15 03:14:16;;;;;;;7.37;6.67;;;9.70;99.90;;;;;;4994630;28;20426;-73
2023/05/15 03:16:44;;;;;;;7.10;6.43;;;9.80;99.90;;;;;;4994690;28;20191;-73
2023/05/15 03:19:10;;;;;;;6.83;6.20;;;9.90;99.90;;;;;;4993394;28;20434;-73
2023/05/15 03:21:35;;;;;;;6.33;5.83;;;9.90;99.90;;;;;;4994646;28;20474;-72
2023/05/15 03:24:01;;;;;;;6.67;5.90;;;9.90;99.90;;;;;;4994425;28;20721;-72
2023/05/15 03:26:26;;;;;;;7.27;6.57;;;10.00;99.90;;;;;;4993281;28;20225;-72
2023/05/15 03:28:52;;;;;;;7.73;7.03;;;10.00;99.90;;;;;;5002162;28;20562;-72
2023/05/15 03:31:18;;;;;;;7.13;6.30;;;10.10;99.90;;;;;;4993217;28;20242;-72
2023/05/15 03:33:48;;;;;;;7.13;6.43;;;10.10;99.90;;;;;;4994160;28;20438;-70
2023/05/15 03:36:14;;;;;;;6.80;6.20;;;10.10;99.90;;;;;;4994789;28;20261;-72
2023/05/15 03:38:40;;;;;;;7.80;5.73;;;10.20;99.90;;;;;;4994083;28;21016;-72
2023/05/15 03:41:05;;;;;;;8.80;5.13;;;10.20;99.90;;;;;;5001684;28;20210;-72
2023/05/15 03:43:31;;;;;;;6.03;5.30;;;10.20;99.90;;;;;;4992947;28;20202;-72
2023/05/15 03:45:58;;;;;;;5.90;5.30;;;10.30;99.90;;;;;;5000414;28;20651;-72
2023/05/15 03:48:23;;;;;;;6.00;5.40;;;10.30;99.90;;;;;;4993938;28;20616;-73
2023/05/15 03:50:49;;;;;;;7.03;6.43;;;10.30;99.90;;;;;;5002680;28;20497;-71
2023/05/15 03:53:15;;;;;;;7.10;6.40;;;10.30;99.90;;;;;;5001492;28;20655;-72
2023/05/15 03:55:41;;;;;;;7.00;6.30;;;10.40;99.90;;;;;;4994030;28;20430;-71
2023/05/15 03:58:06;;;;;;;8.00;6.00;;;10.40;99.90;;;;;;4993490;28;20186;-71
2023/05/15 04:00:32;;;;;;;6.70;5.87;;;10.40;99.90;;;;;;4994065;28;20562;-71
2023/05/15 04:02:57;;;;;;;11.20;5.33;;;10.40;99.90;;;;;;4993579;28;20639;-71
2023/05/15 04:05:23;;;;;;;7.57;6.00;;;10.50;99.90;;;;;;4994212;28;20651;-71
2023/05/15 04:07:48;;;;;;;6.23;5.70;;;10.60;99.90;;;;;;4993181;28;20199;-71
2023/05/15 04:10:14;;;;;;;10.00;6.37;;;10.60;99.90;;;;;;5000780;28;20183;-71
2023/05/15 04:12:39;;;;;;;6.90;6.10;;;10.60;99.90;;;;;;5001194;28;20222;-71
2023/05/15 04:15:18;;;;;;;6.43;5.83;;;10.70;99.90;;;;;;4996972;28;20191;-72
2023/05/15 04:17:44;;;;;;;7.83;6.80;;;10.80;99.90;;;;;;4996540;28;20199;-72
2023/05/15 04:20:13;;;;;;;6.33;5.83;;;10.90;99.90;;;;;;5001703;28;20441;-75
2023/05/15 04:22:38;;;;;;;5.77;5.23;;;10.90;99.90;;;;;;4993607;28;20474;-75
2023/05/15 04:25:04;;;;;;;6.60;6.00;;;11.00;99.90;;;;;;5001555;28;20950;-72
2023/05/15 04:27:30;;;;;;;8.03;7.20;;;11.00;99.90;;;;;;4993268;28;20256;-71
2023/05/15 04:29:55;;;;;;;6.07;5.57;;;11.10;99.90;;;;;;4994780;28;20758;-72
2023/05/15 04:32:21;;;;;;;7.00;6.30;;;11.10;99.90;;;;;;5003381;28;20265;-72
2023/05/15 04:34:46;;;;;;;5.70;5.17;;;11.20;99.90;;;;;;4995782;28;20221;-72
2023/05/15 04:37:12;;;;;;;6.90;6.20;;;11.20;99.90;;;;;;4993311;28;20241;-72
2023/05/15 04:39:40;;;;;;;7.10;6.40;;;11.40;99.90;;;;;;4992929;28;20198;-72
2023/05/15 04:42:06;;;;;;;6.77;6.07;;;11.40;99.90;;;;;;5001019;28;20199;-72
2023/05/15 04:44:32;;;;;;;6.87;6.27;;;11.60;99.90;;;;;;4993205;28;20489;-72
2023/05/15 04:47:00;;;;;;;6.90;6.20;;;11.70;99.90;;;;;;4992399;28;20233;-72
2023/05/15 04:49:26;;;;;;;7.30;6.60;;;11.70;99.90;;;;;;4992978;28;20509;-72
2023/05/15 04:51:51;;;;;;;7.10;6.33;;;11.80;99.90;;;;;;5000600;28;20572;-71
2023/05/15 04:54:20;;;;;;;8.00;7.20;;;11.90;99.90;;;;;;4992584;28;20560;-72
2023/05/15 04:56:45;;;;;;;10.33;9.30;;;12.00;99.90;;;;;;4992428;28;20199;-71
2023/05/15 04:59:12;;;;;;;8.30;6.77;;;12.10;99.90;;;;;;4992843;28;20523;-72
2023/05/15 05:01:40;;;;;;;11.00;7.20;;;12.10;99.90;;;;;;4992511;28;20234;-72
2023/05/15 05:04:06;;;;;;;7.90;7.10;;;12.20;99.90;;;;;;4991264;28;20462;-72
2023/05/15 05:06:31;;;;;;;12.70;7.23;;;12.30;99.90;;;;;;4992719;28;20978;-72
2023/05/15 05:09:00;;;;;;;7.63;6.67;;;12.50;99.90;;;;;;4991973;28;20195;-72
2023/05/15 05:11:25;;;;;;;7.37;6.43;;;12.60;99.90;;;;;;4998219;28;20578;-72
2023/05/15 05:13:51;;;;;;;7.57;6.20;;;12.90;99.90;;;;;;4994801;28;20434;-72
2023/05/15 05:16:18;;;;;;;7.20;6.50;;;13.00;99.90;;;;;;4992647;28;20191;-72
2023/05/15 05:18:43;;;;;;;6.53;5.93;;;13.50;99.90;;;;;;4990700;28;20238;-71
2023/05/15 05:21:09;;;;;;;8.43;6.17;;;13.80;99.90;;;;;;5000542;28;20502;-72
2023/05/15 05:23:35;;;;;;;12.10;7.17;;;14.00;99.90;;;;;;4992355;28;20606;-72
2023/05/15 05:26:00;;;;;;;16.03;6.70;;;14.50;99.90;;;;;;4991554;28;20426;-72
2023/05/15 05:28:26;;;;;;;7.10;6.50;;;15.20;99.90;;;;;;4997616;28;20230;-73
2023/05/15 05:30:51;;;;;;;5.53;5.00;;;15.80;99.90;;;;;;5001725;28;20606;-72
2023/05/15 05:33:17;;;;;;;6.50;5.90;;;17.20;99.90;;;;;;4992293;28;20636;-72
2023/05/15 05:35:42;;;;;;;5.70;5.20;;;18.90;99.90;;;;;;4992508;28;20194;-72
2023/05/15 05:38:08;;;;;;;6.50;5.97;;;19.80;99.90;;;;;;4992055;28;20605;-72
2023/05/15 05:40:37;;;;;;;9.97;4.77;;;20.30;99.90;;;;;;4992117;28;20230;-72
2023/05/15 05:43:03;;;;;;;5.60;5.13;;;21.30;99.90;;;;;;4991795;28;20211;-72
2023/05/15 05:45:29;;;;;;;6.33;5.60;;;21.60;99.90;;;;;;4992241;28;20427;-73
2023/05/15 05:47:55;;;;;;;7.60;5.67;;;22.00;99.90;;;;;;4999797;28;20442;-73
2023/05/15 05:50:21;;;;;;;6.07;5.47;;;22.20;99.90;;;;;;4997129;28;20183;-70
2023/05/15 05:52:46;;;;;;;6.63;6.03;;;22.20;99.90;;;;;;4994819;28;20510;-72
2023/05/15 05:55:12;;;;;;;7.33;5.90;;;21.40;99.90;;;;;;4990865;28;20242;-72
2023/05/15 05:57:37;;;;;;;7.40;6.20;;;21.10;99.90;;;;;;4999572;28;20187;-72
2023/05/15 06:00:07;;;;;;;6.73;6.23;;;20.70;99.90;;;;;;4991682;28;20184;-73
2023/05/15 06:02:36;;;;;;;6.77;6.17;;;20.70;99.90;;;;;;5006571;28;20322;-72
2023/05/15 06:05:02;;;;;;;13.40;6.50;;;20.20;99.90;;;;;;4991896;28;20418;-72
2023/05/15 06:07:28;;;;;;;7.20;5.83;;;20.00;99.90;;;;;;4991641;28;20425;-73
2023/05/15 06:09:53;;;;;;;11.23;6.47;;;19.80;99.90;;;;;;4991680;28;20634;-72
2023/05/15 06:12:19;;;;;;;6.97;6.27;;;19.90;99.90;;;;;;4991793;28;20217;-72
2023/05/15 06:14:45;;;;;;;7.03;6.43;;;19.90;99.90;;;;;;4990534;28;20412;-70
2023/05/15 06:17:10;;;;;;;7.17;6.47;;;20.00;99.90;;;;;;4991533;28;20191;-72
2023/05/15 06:19:36;;;;;;;6.73;6.10;;;20.10;99.90;;;;;;4991666;28;20191;-72
2023/05/15 06:22:01;;;;;;;6.40;5.83;;;20.20;99.90;;;;;;5001970;28;20698;-73
2023/05/15 06:24:27;;;;;;;10.00;5.70;;;20.20;99.90;;;;;;4997504;28;20648;-73
2023/05/15 06:26:52;;;;;;;6.27;5.77;;;20.00;99.90;;;;;;4999423;28;20453;-72
2023/05/15 06:29:18;;;;;;;5.50;5.10;;;20.10;99.90;;;;;;4991991;28;20191;-73
2023/05/15 06:31:44;;;;;;;6.00;5.50;;;20.40;99.90;;;;;;4991551;28;20215;-73
2023/05/15 06:34:12;;;;;;;5.40;4.90;;;20.30;99.90;;;;;;4995215;28;20198;-73
2023/05/15 06:36:37;;;;;;;5.83;5.20;;;20.50;99.90;;;;;;4996259;28;20210;-72
2023/05/15 06:39:04;;;;;;;6.10;4.77;;;20.30;99.90;;;;;;5002120;28;20430;-73
2023/05/15 06:41:32;;;;;;;5.03;4.57;;;20.40;99.90;;;;;;4997085;28;20789;-73
2023/05/15 06:43:58;;;;;;;4.87;4.37;;;20.60;99.90;;;;;;4991484;28;20431;-73
2023/05/15 06:46:23;;;;;;;6.97;5.60;;;20.90;99.90;;;;;;5006032;28;20445;-73
2023/05/15 06:48:52;;;;;;;6.27;4.57;;;20.80;99.90;;;;;;5002242;28;20199;-73
2023/05/15 06:51:17;;;;;;;4.97;4.57;;;21.00;99.90;;;;;;4990288;28;20691;-73
2023/05/15 06:53:43;;;;;;;8.80;4.57;;;21.10;99.90;;;;;;4991359;28;20489;-73
2023/05/15 06:56:11;;;;;;;5.00;4.40;;;21.20;99.90;;;;;;5003676;28;20194;-73
2023/05/15 06:58:37;;;;;;;5.17;4.87;;;21.00;99.90;;;;;;4995865;28;20620;-72
2023/05/15 07:01:02;;;;;;;4.67;4.27;;;21.10;99.90;;;;;;4999464;28;20501;-73
2023/05/15 07:03:29;;;;;;;5.33;3.80;;;21.30;99.90;;;;;;4991686;28;20221;-73
2023/05/15 07:05:55;;;;;;;5.13;3.90;;;21.50;99.90;;;;;;4998111;28;20190;-73
2023/05/15 07:08:20;;;;;;;5.27;4.87;;;21.50;99.90;;;;;;4999678;28;20434;-73
2023/05/15 07:10:48;;;;;;;5.17;4.13;;;21.60;99.90;;;;;;4991003;28;20563;-72
2023/05/15 07:13:19;;;;;;;4.73;3.93;;;21.70;99.90;;;;;;4991653;28;20199;-73
2023/05/15 07:15:45;;;;;;;4.47;4.17;;;21.70;99.90;;;;;;4991197;28;20441;-70
2023/05/15 07:18:11;;;;;;;4.00;3.70;;;21.70;99.90;;;;;;4992687;28;20430;-73
2023/05/15 07:20:36;;;;;;;3.80;3.50;;;21.90;99.90;;;;;;4994717;28;20234;-73
2023/05/15 07:23:02;;;;;;;3.40;3.20;;;21.90;99.90;;;;;;4994317;28;20692;-73
2023/05/15 07:25:30;;;;;;;3.47;3.27;;;21.90;99.90;;;;;;5002973;28;20671;-73
2023/05/15 07:27:56;;;;;;;4.40;4.20;;;21.70;99.90;;;;;;4993891;28;20794;-73
2023/05/15 07:30:22;;;;;;;3.80;3.60;;;21.80;99.90;;;;;;4994623;28;20434;-73
2023/05/15 07:32:49;;;;;;;6.40;4.37;;;21.90;99.90;;;;;;5001275;28;20206;-73
2023/05/15 07:35:15;;;;;;;4.17;3.77;;;22.00;99.90;;;;;;4994922;28;20187;-74
2023/05/15 07:37:40;;;;;;;4.73;4.33;;;22.00;99.90;;;;;;5002406;28;20434;-74
2023/05/15 07:40:06;;;;;;;4.07;3.67;;;21.90;99.90;;;;;;4995226;28;20557;-73
2023/05/15 07:42:32;;;;;;;3.97;3.67;;;22.20;99.90;;;;;;5002556;28;20226;-73
2023/05/15 07:44:57;;;;;;;4.17;3.87;;;22.60;99.90;;;;;;4994037;28;20443;-72
2023/05/15 07:47:23;;;;;;;4.17;3.77;;;22.70;99.90;;;;;;5002168;28;20179;-73
2023/05/15 07:49:48;;;;;;;4.40;3.87;;;22.60;99.90;;;;;;5002211;28;20674;-72
2023/05/15 07:52:14;;;;;;;4.40;3.73;;;22.70;99.90;;;;;;4994388;28;20265;-72
2023/05/15 07:54:42;;;;;;;3.27;3.07;;;22.90;99.90;;;;;;4994152;28;20195;-73
2023/05/15 07:57:08;;;;;;;3.40;3.10;;;23.10;99.90;;;;;;4993635;28;20183;-71
2023/05/15 07:59:34;;;;;;;2.67;2.53;;;23.50;99.90;;;;;;4992805;28;20450;-74
2023/05/15 08:02:00;;;;;;;3.90;3.47;;;22.70;99.90;;;;;;4993445;28;20302;-73
2023/05/15 08:04:25;;;;;;;4.17;3.77;;;22.60;99.90;;;;;;4993953;28;20581;-73
2023/05/15 08:06:51;;;;;;;3.80;3.50;;;22.70;99.90;;;;;;4993537;28;20796;-71
2023/05/15 08:09:16;;;;;;;3.40;3.17;;;22.90;99.90;;;;;;5001929;28;20183;-73
2023/05/15 08:11:42;;;;;;;3.43;3.10;;;23.10;99.90;;;;;;4994066;28;20324;-73
2023/05/15 08:14:08;;;;;;;5.80;2.70;;;23.10;99.90;;;;;;5001861;28;20271;-73
2023/05/15 08:16:34;;;;;;;3.43;3.23;;;23.50;99.90;;;;;;4993798;28;20199;-73
2023/05/15 08:19:03;;;;;;;3.77;3.47;;;23.70;99.90;;;;;;4993074;28;20537;-73
2023/05/15 08:21:29;;;;;;;3.50;3.30;;;24.00;99.90;;;;;;4993847;28;20211;-73
2023/05/15 08:23:55;;;;;;;3.13;2.93;;;24.50;99.90;;;;;;4993040;28;20792;-73
2023/05/15 08:26:21;;;;;;;2.97;2.87;;;24.70;99.90;;;;;;4993764;28;20423;-73
2023/05/15 08:28:47;;;;;;;3.37;3.07;;;24.80;99.90;;;;;;5000158;28;20435;-72
2023/05/15 08:31:12;;;;;;;3.20;2.67;;;24.90;99.90;;;;;;4993316;28;20246;-74
2023/05/15 08:33:38;;;;;;;3.00;2.70;;;25.30;99.90;;;;;;4993536;28;20207;-74
2023/05/15 08:36:03;;;;;;;3.00;2.80;;;25.70;99.90;;;;;;4996130;28;20195;-73
2023/05/15 08:38:29;;;;;;;4.83;3.10;;;25.50;99.90;;;;;;4998788;28;20187;-73
2023/05/15 08:40:57;;;;;;;2.63;2.43;;;25.50;99.90;;;;;;5005033;28;20222;-71
2023/05/15 08:43:25;;;;;;;3.30;3.00;;;25.20;99.90;;;;;;4999803;28;20180;-73
2023/05/15 08:45:52;;;;;;;3.20;3.00;;;24.20;99.90;;;;;;5001022;28;20445;-73
2023/05/15 08:48:19;;;;;;;2.90;2.80;;;24.10;99.90;;;;;;4991727;28;20564;-73
2023/05/15 08:50:46;;;;;;;2.73;2.63;;;24.60;99.90;;;;;;5001175;28;20526;-73
2023/05/15 08:53:12;;;;;;;3.10;2.90;;;25.10;99.90;;;;;;4992984;28;20957;-72
2023/05/15 08:55:38;;;;;;;2.97;2.77;;;25.40;99.90;;;;;;4993014;28;20791;-73
2023/05/15 08:58:03;;;;;;;4.93;3.00;;;25.40;99.90;;;;;;4992405;28;20434;-72
2023/05/15 09:00:29;;;;;;;4.80;3.23;;;25.90;99.90;;;;;;4993004;28;20656;-72
2023/05/15 09:03:06;;;;;;;3.37;3.17;;;26.30;99.90;;;;;;4992610;28;20203;-72
2023/05/15 09:05:31;;;;;;;3.90;3.60;;;25.70;99.90;;;;;;5001288;28;20430;-72
2023/05/15 09:08:01;;;;;;;3.63;3.10;;;24.50;99.90;;;;;;4991972;28;20426;-72
2023/05/15 09:10:28;;;;;;;3.27;3.10;;;23.60;99.90;;;;;;5000977;28;20441;-72
2023/05/15 09:12:53;;;;;;;3.97;3.60;;;22.80;99.90;;;;;;4992157;28;20426;-72
2023/05/15 09:15:23;;;;;;;3.70;3.50;;;22.10;99.90;;;;;;4992726;28;20496;-73
2023/05/15 09:17:49;;;;;;;9.60;3.70;;;21.80;99.90;;;;;;4991975;28;20759;-73
2023/05/15 09:20:34;;;;;;;5.43;3.20;;;22.60;99.90;;;;;;5000807;28;20458;-72
2023/05/15 09:23:02;;;;;;;3.60;3.30;;;23.50;99.90;;;;;;4991757;28;20474;-72
2023/05/15 09:25:43;;;;;;;5.90;3.17;;;23.80;99.90;;;;;;4992062;28;20434;-74
2023/05/15 09:28:23;;;;;;;8.17;3.27;;;24.40;99.90;;;;;;5000362;28;20492;-73
2023/05/15 09:30:48;;;;;;;7.50;3.70;;;24.50;99.90;;;;;;5008070;28;20454;-74
2023/05/15 09:33:16;;;;;;;2.33;2.23;;;25.00;99.90;;;;;;4992203;28;20439;-73
2023/05/15 09:35:41;;;;;;;6.73;3.13;;;25.10;99.90;;;;;;5000479;28;20197;-72
2023/05/15 09:38:11;;;;;;;2.93;2.73;;;25.40;99.90;;;;;;4991579;28;20430;-74
2023/05/15 09:40:40;;;;;;;4.87;3.10;;;25.50;99.90;;;;;;4992178;28;20718;-73
2023/05/15 09:43:08;;;;;;;4.00;2.90;;;25.50;99.90;;;;;;4991703;28;20477;-74
2023/05/15 09:45:33;;;;;;;3.63;2.47;;;25.40;99.90;;;;;;4992041;28;20462;-73
2023/05/15 09:48:03;;;;;;;2.93;2.60;;;25.50;99.90;;;;;;4991397;28;20459;-73
2023/05/15 09:50:37;;;;;;;3.30;3.10;;;26.30;99.90;;;;;;4991903;28;20184;-72
2023/05/15 09:53:04;;;;;;;2.93;2.73;;;26.20;99.90;;;;;;4991596;28;20438;-73
2023/05/15 09:55:33;;;;;;;3.37;3.17;;;25.40;99.90;;;;;;5000183;28;20426;-72
2023/05/15 09:58:07;;;;;;;3.83;3.43;;;25.40;99.90;;;;;;4993051;28;20523;-72
2023/05/15 10:00:34;;;;;;;6.40;3.60;;;25.50;99.90;;;;;;4996374;28;20822;-72
2023/05/15 10:03:04;;;;;;;5.50;3.40;;;25.30;99.90;;;;;;4991657;28;20458;-73
2023/05/15 10:05:30;;;;;;;3.60;3.30;;;25.00;99.90;;;;;;4991451;28;20437;-72
2023/05/15 10:07:57;;;;;;;3.20;3.00;;;25.20;99.90;;;;;;4999227;28;20417;-73
2023/05/15 10:10:25;;;;;;;3.37;3.07;;;25.70;99.90;;;;;;5004839;28;20513;-74
2023/05/15 10:12:51;;;;;;;3.40;3.20;;;25.70;99.90;;;;;;4993722;28;20425;-73
2023/05/15 10:15:19;;;;;;;5.50;3.53;;;25.90;99.90;;;;;;4999382;28;20441;-74
2023/05/15 10:17:47;;;;;;;3.27;3.07;;;26.30;99.90;;;;;;4991556;28;20437;-73
2023/05/15 10:20:14;;;;;;;5.60;3.30;;;25.90;99.90;;;;;;4991488;28;20430;-74
2023/05/15 10:22:44;;;;;;;3.23;2.93;;;25.70;99.90;;;;;;4999645;28;20477;-72
2023/05/15 10:25:20;;;;;;;2.97;2.77;;;25.60;99.90;;;;;;4991381;28;20422;-73
2023/05/15 10:27:46;;;;;;;5.90;3.23;;;25.90;99.90;;;;;;4999424;28;20448;-75
2023/05/15 10:30:15;;;;;;;2.77;2.57;;;25.90;99.90;;;;;;4991563;28;20418;-73
2023/05/15 10:32:42;;;;;;;5.23;3.37;;;26.30;99.90;;;;;;4991400;28;20458;-73
2023/05/15 10:35:10;;;;;;;2.90;2.60;;;26.00;99.90;;;;;;4999240;28;20828;-73
2023/05/15 10:37:38;;;;;;;8.70;2.20;;;26.50;99.90;;;;;;4991295;28;20481;-74
2023/05/15 10:40:07;;;;;;;2.17;2.07;;;26.70;99.90;;;;;;4991486;28;20529;-74
2023/05/15 10:42:34;;;;;;;2.77;2.53;;;26.90;99.90;;;;;;4997608;28;20484;-73
2023/05/15 10:45:01;;;;;;;2.70;2.50;;;26.80;99.90;;;;;;4994364;28;20449;-73
2023/05/15 10:47:29;;;;;;;3.10;2.90;;;26.80;99.90;;;;;;4997231;28;21084;-72
2023/05/15 10:49:55;;;;;;;3.60;2.67;;;26.90;99.90;;;;;;4991036;28;20431;-73
2023/05/15 10:52:20;;;;;;;2.57;2.37;;;27.00;99.90;;;;;;4993286;28;20457;-72
2023/05/15 10:54:46;;;;;;;4.43;2.07;;;27.10;99.90;;;;;;4995110;28;20195;-73
2023/05/15 10:57:13;;;;;;;2.67;2.43;;;25.80;99.90;;;;;;5010994;28;20205;-73
2023/05/15 10:59:40;;;;;;;2.20;1.90;;;25.80;99.90;;;;;;4994847;28;20195;-69
2023/05/15 11:02:26;;;;;;;2.17;2.07;;;26.00;99.90;;;;;;4994410;28;20531;-73
2023/05/15 11:05:02;;;;;;;3.80;2.50;;;25.90;99.90;;;;;;5011549;28;20452;-73
2023/05/15 11:07:28;;;;;;;14.67;2.93;;;25.70;99.90;;;;;;5006206;28;20938;-73
2023/05/15 11:09:54;;;;;;;2.40;2.30;;;25.30;99.90;;;;;;4997010;28;20481;-72
2023/05/15 11:12:21;;;;;;;3.07;2.50;;;25.00;99.90;;;;;;4994612;28;20254;-73
2023/05/15 11:14:55;;;;;;;2.93;2.83;;;24.80;99.90;;;;;;4995058;28;20931;-71
2023/05/15 11:17:25;;;;;;;2.53;2.33;;;24.80;99.90;;;;;;5003055;28;20942;-70
2023/05/15 11:19:50;;;;;;;2.93;2.73;;;25.10;99.90;;;;;;4994471;28;20434;-70
2023/05/15 11:22:21;;;;;;;3.23;2.93;;;25.00;99.90;;;;;;4994596;28;20484;-71
2023/05/15 11:24:54;;;;;;;3.97;2.50;;;25.00;99.90;;;;;;4995309;28;20187;-71
2023/05/15 11:27:29;;;;;;;2.60;2.50;;;24.40;99.90;;;;;;4992699;28;20441;-72
2023/05/15 11:30:14;;;;;;;2.80;2.50;;;24.40;99.90;;;;;;4994273;28;20477;-72
2023/05/15 11:32:46;;;;;;;2.37;2.23;;;24.40;99.90;;;;;;5001573;28;20544;-72
2023/05/15 11:35:22;;;;;;;2.50;2.23;;;24.00;99.90;;;;;;4994260;28;20473;-73
2023/05/15 11:38:11;;;;;;;4.03;2.30;;;24.00;99.90;;;;;;4994463;28;20883;-73
2023/05/15 11:40:51;;;;;;;2.43;2.23;;;24.00;99.90;;;;;;4990422;28;20943;-73
2023/05/15 11:43:25;;;;;;;2.77;2.67;;;23.90;99.90;;;;;;4992854;28;20566;-74
2023/05/15 11:45:56;;;;;;;2.57;2.40;;;23.50;99.90;;;;;;4994036;28;20942;-71
2023/05/15 11:48:23;;;;;;;3.40;3.10;;;23.50;99.90;;;;;;4993908;28;20496;-74
2023/05/15 11:50:52;;;;;;;2.43;2.33;;;23.80;99.90;;;;;;4994500;28;21040;-73
2023/05/15 11:53:19;;;;;;;3.40;2.67;;;24.00;99.90;;;;;;4992598;28;20506;-73
2023/05/15 11:55:45;;;;;;;2.60;2.50;;;24.20;99.90;;;;;;5009601;28;20433;-73
2023/05/15 11:58:15;;;;;;;3.33;3.03;;;24.20;99.90;;;;;;5002054;28;20434;-72
2023/05/15 12:00:43;;;;;;;3.13;2.93;;;24.30;99.90;;;;;;4994338;28;20195;-73
2023/05/15 12:03:21;;;;;;;2.93;2.77;;;24.30;99.90;;;;;;4992415;28;20565;-72
2023/05/15 12:05:46;;;;;;;7.40;2.67;;;24.30;99.90;;;;;;5001584;28;20433;-72
2023/05/15 12:08:12;;;;;;;5.77;3.90;;;24.30;99.90;;;;;;5001147;28;20841;-73
2023/05/15 12:10:42;;;;;;;8.60;3.40;;;24.40;99.90;;;;;;5000143;28;20194;-73
2023/05/15 12:13:09;;;;;;;7.57;3.70;;;24.10;99.90;;;;;;5012908;28;20190;-73
2023/05/15 12:15:41;;;;;;;3.27;3.07;;;23.70;99.90;;;;;;5007555;28;20469;-73
2023/05/15 12:18:07;;;;;;;4.70;3.03;;;23.40;99.90;;;;;;4995030;28;20915;-73
2023/05/15 12:20:35;;;;;;;4.40;2.80;;;23.20;99.90;;;;;;4999658;28;20442;-73
2023/05/15 12:23:04;;;;;;;5.37;2.70;;;23.20;99.90;;;;;;4993211;28;20269;-72
2023/05/15 12:25:37;;;;;;;4.00;3.20;;;22.80;99.90;;;;;;4993473;28;20546;-72
2023/05/15 12:28:04;;;;;;;3.03;2.83;;;22.80;99.90;;;;;;4994486;28;20910;-72
2023/05/15 12:30:31;;;;;;;3.37;3.07;;;23.10;99.90;;;;;;5007693;28;20445;-73
2023/05/15 12:33:07;;;;;;;2.60;2.50;;;23.20;99.90;;;;;;5009431;28;20449;-72
2023/05/15 12:35:34;;;;;;;2.63;2.43;;;23.30;99.90;;;;;;4993435;28;20434;-73
2023/05/15 12:38:04;;;;;;;2.90;2.60;;;23.40;99.90;;;;;;4992796;28;20442;-72
2023/05/15 12:40:33;;;;;;;3.53;3.27;;;23.20;99.90;;;;;;4998056;28;20541;-72
2023/05/15 12:43:03;;;;;;;5.63;2.90;;;23.00;99.90;;;;;;4995168;28;20999;-74
2023/05/15 12:45:31;;;;;;;2.37;2.27;;;22.90;99.90;;;;;;4993350;28;20433;-72
2023/05/15 12:47:57;;;;;;;5.47;3.43;;;22.50;99.90;;;;;;5000861;28;20421;-74
2023/05/15 12:50:24;;;;;;;3.97;2.90;;;22.30;99.90;;;;;;4995717;28;20444;-69
2023/05/15 12:52:51;;;;;;;5.83;3.10;;;22.10;99.90;;;;;;5002209;28;20550;-73
2023/05/15 12:55:22;;;;;;;2.77;2.60;;;22.00;99.90;;;;;;5019856;28;20430;-73
2023/05/15 12:57:48;;;;;;;3.17;2.87;;;21.80;99.90;;;;;;5001154;28;20426;-73
2023/05/15 13:00:14;;;;;;;3.27;3.07;;;21.50;99.90;;;;;;4997864;28;20452;-73
2023/05/15 13:02:44;;;;;;;3.03;2.73;;;21.10;99.90;;;;;;5009634;28;20229;-73
2023/05/15 13:05:10;;;;;;;3.47;3.17;;;21.10;99.90;;;;;;5011940;28;20434;-73
2023/05/15 13:07:37;;;;;;;2.97;2.80;;;21.00;99.90;;;;;;5001173;28;20457;-73
2023/05/15 13:10:06;;;;;;;2.90;2.33;;;20.90;99.90;;;;;;4993391;28;20505;-73
2023/05/15 13:12:36;;;;;;;3.13;3.03;;;20.70;99.90;;;;;;4998985;28;20454;-73
2023/05/15 13:15:04;;;;;;;3.23;3.03;;;20.50;99.90;;;;;;5001037;28;20425;-71
2023/05/15 13:17:30;;;;;;;3.43;3.13;;;20.40;99.90;;;;;;4999026;28;20434;-73
2023/05/15 13:19:55;;;;;;;3.80;3.40;;;20.20;99.90;;;;;;5000955;28;20953;-73
2023/05/15 13:22:22;;;;;;;3.60;3.30;;;20.20;99.90;;;;;;5000182;28;20246;-74
2023/05/15 13:24:47;;;;;;;4.13;3.83;;;20.00;99.90;;;;;;4992441;28;20225;-73
2023/05/15 13:27:13;;;;;;;9.63;3.57;;;19.90;99.90;;;;;;4999920;28;20441;-73
2023/05/15 13:29:39;;;;;;;4.10;3.70;;;19.90;99.90;;;;;;4992455;28;20554;-71
2023/05/15 13:32:05;;;;;;;3.93;3.67;;;20.00;99.90;;;;;;4992139;28;20223;-72
2023/05/15 13:34:31;;;;;;;3.43;3.27;;;20.10;99.90;;;;;;4992446;28;20803;-72
2023/05/15 13:36:56;;;;;;;4.37;4.17;;;20.10;99.90;;;;;;4992239;28;20441;-73
2023/05/15 13:39:22;;;;;;;4.27;3.60;;;20.00;99.90;;;;;;4999994;28;20245;-73
2023/05/15 13:41:47;;;;;;;4.13;3.83;;;19.90;99.90;;;;;;4992087;28;20785;-73
2023/05/15 13:44:13;;;;;;;4.30;4.00;;;19.70;99.90;;;;;;4991664;28;20299;-72
2023/05/15 13:46:39;;;;;;;5.67;4.37;;;19.60;99.90;;;;;;4992146;28;20270;-73
2023/05/15 13:49:05;;;;;;;6.50;4.27;;;19.40;99.90;;;;;;5001228;28;20504;-73
2023/05/15 13:51:30;;;;;;;3.67;3.47;;;19.20;99.90;;;;;;4991808;28;20214;-73
2023/05/15 13:53:56;;;;;;;4.97;4.57;;;19.00;99.90;;;;;;4992106;28;20222;-73
2023/05/15 13:56:21;;;;;;;4.90;4.40;;;18.90;99.90;;;;;;4991320;28;20556;-72
2023/05/15 13:58:46;;;;;;;4.93;4.03;;;18.90;99.90;;;;;;4991572;28;20246;-73
2023/05/15 14:01:12;;;;;;;4.40;4.03;;;18.80;99.90;;;;;;5000482;28;20215;-73
2023/05/15 14:03:37;;;;;;;3.27;3.13;;;18.80;99.90;;;;;;5005090;28;20664;-74
2023/05/15 14:06:03;;;;;;;3.67;3.47;;;18.90;99.90;;;;;;5004998;28;20651;-74
2023/05/15 14:08:29;;;;;;;4.13;3.93;;;18.90;99.90;;;;;;5008903;28;20213;-74
2023/05/15 14:10:56;;;;;;;4.80;4.37;;;19.00;99.90;;;;;;5003766;28;20199;-74
2023/05/15 14:13:23;;;;;;;4.30;4.00;;;19.10;99.90;;;;;;5004128;28;20187;-74
2023/05/15 14:15:48;;;;;;;4.70;4.40;;;19.10;99.90;;;;;;5005049;28;20441;-75
2023/05/15 14:18:14;;;;;;;3.57;3.37;;;19.00;99.90;;;;;;5008646;28;20433;-74